Time;durP1;ratioP1;P1;durP2;ratioP2;P2;SDS_P1;SDS_P2;PMS_P1;PMS_P2;Temp;Humidity;BMP_temperature;BMP_pressure;BME280_temperature;BME280_humidity;BME280_pressure;Samples;Min_cycle;Max_cycle;Signal;HPM_P1;HPM_P2
2023/09/29 16:11:41;;;;;;;21.27;19.33;;;21.80;99.90;;;;;;5279406;27;20512;-80
2023/09/29 16:14:12;;;;;;;19.27;17.40;;;22.00;99.90;;;;;;5282717;28;20031;-83
2023/09/29 16:16:43;;;;;;;21.33;14.68;;;21.90;99.90;;;;;;5288031;28;20162;-81
2023/09/29 16:19:15;;;;;;;16.20;14.57;;;22.00;99.90;;;;;;5284057;28;20036;-82
2023/09/29 16:21:46;;;;;;;20.48;12.82;;;22.10;99.90;;;;;;5284053;28;20036;-81
2023/09/29 16:24:17;;;;;;;19.15;13.85;;;22.10;99.90;;;;;;5285581;28;20016;-81
2023/09/29 16:26:48;;;;;;;14.45;11.75;;;21.90;99.90;;;;;;5283776;28;20539;-82
2023/09/29 16:29:19;;;;;;;19.15;9.70;;;21.80;99.90;;;;;;5284586;28;20020;-82
2023/09/29 16:31:50;;;;;;;19.13;8.48;;;21.80;99.90;;;;;;5281288;28;20432;-79
2023/09/29 16:34:21;;;;;;;12.45;6.82;;;21.80;99.90;;;;;;5282767;28;20355;-79
2023/09/29 16:36:52;;;;;;;12.82;7.60;;;21.70;99.90;;;;;;5283443;28;20134;-81
2023/09/29 16:39:23;;;;;;;14.30;7.57;;;21.70;99.90;;;;;;5284454;28;20031;-80
2023/09/29 16:41:55;;;;;;;11.02;7.20;;;21.50;99.90;;;;;;5283875;28;20367;-80
2023/09/29 16:44:26;;;;;;;10.43;6.13;;;21.70;99.90;;;;;;5283116;28;20016;-80
2023/09/29 16:47:00;;;;;;;23.65;6.03;;;21.50;99.90;;;;;;5282126;28;20032;-79
2023/09/29 16:49:30;;;;;;;13.65;6.78;;;21.50;99.90;;;;;;5282989;28;20068;-82
2023/09/29 16:52:01;;;;;;;14.25;7.10;;;21.40;99.90;;;;;;5283972;28;20063;-81
2023/09/29 16:54:33;;;;;;;10.60;6.82;;;21.40;99.90;;;;;;5281130;28;20072;-80
2023/09/29 16:57:04;;;;;;;15.18;7.57;;;21.50;99.90;;;;;;5265407;28;20042;-82
2023/09/29 16:59:35;;;;;;;14.98;7.93;;;21.30;99.90;;;;;;5282756;28;20024;-80
2023/09/29 17:02:06;;;;;;;12.70;6.95;;;21.30;99.90;;;;;;5281420;28;20073;-79
2023/09/29 17:04:37;;;;;;;14.52;6.55;;;21.20;99.90;;;;;;5284316;28;20020;-78
2023/09/29 17:07:07;;;;;;;13.98;7.20;;;21.20;99.90;;;;;;5282799;28;20024;-80
2023/09/29 17:09:38;;;;;;;16.10;6.80;;;21.10;99.90;;;;;;5283425;28;20491;-80
2023/09/29 17:12:12;;;;;;;12.75;7.45;;;21.20;99.90;;;;;;5283859;28;20414;-80
2023/09/29 17:14:43;;;;;;;15.05;7.40;;;21.10;99.90;;;;;;5284068;28;20073;-79
2023/09/29 17:17:14;;;;;;;14.25;6.45;;;21.10;99.90;;;;;;5282181;28;20065;-79
2023/09/29 17:19:49;;;;;;;12.55;6.65;;;21.00;99.90;;;;;;5283638;28;20012;-79
2023/09/29 17:22:20;;;;;;;12.55;7.32;;;20.90;99.90;;;;;;5268876;28;20110;-80
2023/09/29 17:24:51;;;;;;;12.57;7.80;;;21.00;99.90;;;;;;5268516;28;20418;-82
2023/09/29 17:27:22;;;;;;;16.05;7.22;;;21.00;99.90;;;;;;5269772;28;20036;-82
2023/09/29 17:29:53;;;;;;;16.30;7.85;;;21.00;99.90;;;;;;5268937;28;20040;-83
2023/09/29 17:32:24;;;;;;;16.13;8.27;;;21.10;99.90;;;;;;5269205;28;20016;-82
2023/09/29 17:34:59;;;;;;;12.85;8.65;;;20.80;99.90;;;;;;5269212;28;20020;-83
2023/09/29 17:37:31;;;;;;;17.50;11.52;;;20.80;99.90;;;;;;5269133;28;20035;-81
2023/09/29 17:40:02;;;;;;;13.55;12.20;;;20.80;99.90;;;;;;5270547;28;20117;-81
2023/09/29 17:42:33;;;;;;;18.25;11.68;;;20.70;99.90;;;;;;5269920;28;20394;-83
2023/09/29 17:45:04;;;;;;;15.55;10.10;;;20.70;99.90;;;;;;5267857;28;20029;-82
2023/09/29 17:47:35;;;;;;;11.05;9.32;;;20.90;99.90;;;;;;5269751;28;20036;-81
2023/09/29 17:50:06;;;;;;;11.98;9.52;;;20.80;99.90;;;;;;5267301;28;20043;-81
2023/09/29 17:52:38;;;;;;;13.52;9.65;;;20.80;99.90;;;;;;5268423;28;20020;-80
2023/09/29 17:55:09;;;;;;;18.50;8.25;;;20.80;99.90;;;;;;5269174;28;20043;-83
2023/09/29 17:57:40;;;;;;;12.20;9.40;;;20.70;99.90;;;;;;5265123;28;20016;-82
2023/09/29 18:00:11;;;;;;;15.02;8.52;;;20.80;99.90;;;;;;5265787;28;20039;-79
2023/09/29 18:02:44;;;;;;;14.35;7.57;;;20.90;99.90;;;;;;5266315;28;20032;-84
2023/09/29 18:05:21;;;;;;;11.52;6.80;;;20.80;99.90;;;;;;5266921;28;20105;-79
2023/09/29 18:07:52;;;;;;;12.75;6.55;;;20.90;99.90;;;;;;5261061;28;20170;-80
2023/09/29 18:10:23;;;;;;;13.60;7.32;;;20.90;99.90;;;;;;5265111;28;20151;-82
2023/09/29 18:12:56;;;;;;;13.02;7.07;;;20.80;99.90;;;;;;5267122;28;20093;-81
2023/09/29 18:15:28;;;;;;;11.93;6.40;;;20.80;99.90;;;;;;5269159;28;20059;-80
2023/09/29 18:18:00;;;;;;;13.30;6.68;;;20.80;99.90;;;;;;5267755;28;20039;-80
2023/09/29 18:20:31;;;;;;;15.50;7.22;;;20.70;99.90;;;;;;5268366;28;20043;-80
2023/09/29 18:23:03;;;;;;;15.65;6.20;;;20.60;99.90;;;;;;5270037;28;20020;-80
2023/09/29 18:25:35;;;;;;;13.15;6.05;;;20.70;99.90;;;;;;5263540;28;20044;-80
2023/09/29 18:28:06;;;;;;;12.32;6.65;;;20.40;99.90;;;;;;5267889;28;20036;-79
2023/09/29 18:30:37;;;;;;;15.73;6.82;;;20.40;99.90;;;;;;5265720;28;20117;-79
2023/09/29 18:33:09;;;;;;;14.80;6.32;;;20.50;99.90;;;;;;5264758;28;20028;-80
2023/09/29 18:35:40;;;;;;;12.75;6.65;;;20.50;99.90;;;;;;5265296;28;20375;-80
2023/09/29 18:38:11;;;;;;;15.57;6.57;;;20.40;99.90;;;;;;5266207;28;20023;-80
2023/09/29 18:40:42;;;;;;;12.60;6.82;;;20.30;99.90;;;;;;5263707;28;20050;-80
2023/09/29 18:43:14;;;;;;;10.70;7.38;;;20.30;99.90;;;;;;5268561;28;20517;-80
2023/09/29 18:45:45;;;;;;;13.18;6.97;;;20.30;99.90;;;;;;5258903;28;20683;-82
2023/09/29 18:48:15;;;;;;;13.13;6.82;;;20.20;99.90;;;;;;5266253;28;20020;-81
2023/09/29 18:50:46;;;;;;;14.70;6.85;;;20.30;99.90;;;;;;5264190;28;20047;-83
2023/09/29 18:53:17;;;;;;;15.05;6.85;;;20.20;99.90;;;;;;5265290;28;20020;-84
2023/09/29 18:55:49;;;;;;;13.77;5.93;;;20.10;99.90;;;;;;5264143;28;20078;-81
2023/09/29 18:58:20;;;;;;;16.83;6.63;;;19.90;99.90;;;;;;5263005;28;20479;-81
2023/09/29 19:00:51;;;;;;;14.82;5.65;;;20.10;99.90;;;;;;5266088;28;20032;-81
2023/09/29 19:03:22;;;;;;;9.38;5.53;;;20.10;99.90;;;;;;5266131;28;20024;-80
2023/09/29 19:05:59;;;;;;;15.15;5.80;;;20.10;99.90;;;;;;5266165;28;20031;-79
2023/09/29 19:08:33;;;;;;;14.15;5.20;;;20.00;99.90;;;;;;5267059;28;20053;-81
2023/09/29 19:11:04;;;;;;;10.20;5.22;;;20.00;99.90;;;;;;5262358;28;20053;-79
2023/09/29 19:13:35;;;;;;;16.20;5.75;;;19.90;99.90;;;;;;5266500;28;20016;-80
2023/09/29 19:16:06;;;;;;;9.07;4.68;;;19.80;99.90;;;;;;5265061;28;20040;-78
2023/09/29 19:18:37;;;;;;;12.63;5.78;;;20.00;99.90;;;;;;5266894;28;20028;-82
2023/09/29 19:21:17;;;;;;;11.10;5.35;;;19.90;99.90;;;;;;5267198;28;20032;-80
2023/09/29 19:23:55;;;;;;;12.45;5.47;;;19.80;99.90;;;;;;5263008;28;20031;-81
2023/09/29 19:26:28;;;;;;;16.05;5.82;;;20.00;99.90;;;;;;5259477;28;20031;-83
2023/09/29 19:28:59;;;;;;;13.40;5.30;;;19.90;99.90;;;;;;5263453;28;20049;-82
2023/09/29 19:31:32;;;;;;;17.30;5.55;;;20.00;99.90;;;;;;5266454;28;20035;-83
2023/09/29 19:34:05;;;;;;;14.27;5.70;;;20.10;99.90;;;;;;5267776;28;20062;-83
2023/09/29 19:39:16;;;;;;;18.42;6.45;;;19.80;99.90;;;;;;5306281;22;19987;-82
2023/09/29 19:41:48;;;;;;;13.75;6.40;;;19.80;99.90;;;;;;5173789;28;20452;-80
2023/09/29 19:44:18;;;;;;;14.07;6.70;;;19.90;99.90;;;;;;5177647;28;20038;-80
2023/09/29 19:46:49;;;;;;;9.70;6.10;;;19.80;99.90;;;;;;5189215;28;20037;-81
2023/09/29 19:49:20;;;;;;;11.02;5.95;;;19.90;99.90;;;;;;5188337;28;20121;-81
2023/09/29 19:51:51;;;;;;;14.10;6.53;;;20.00;99.90;;;;;;5173270;28;20029;-81
2023/09/29 19:54:24;;;;;;;12.25;6.63;;;19.90;99.90;;;;;;5193528;28;20036;-81
2023/09/29 19:56:55;;;;;;;12.32;6.68;;;19.90;99.90;;;;;;5174118;28;20389;-81
2023/09/29 19:59:26;;;;;;;12.90;6.13;;;19.80;99.90;;;;;;5187484;28;20022;-80
2023/09/29 20:01:57;;;;;;;10.07;6.28;;;19.90;99.90;;;;;;5178075;28;20457;-79
2023/09/29 20:04:29;;;;;;;8.95;5.22;;;19.80;99.90;;;;;;5173451;28;20034;-82
2023/09/29 20:07:00;;;;;;;11.15;5.45;;;19.80;99.90;;;;;;5170194;28;20465;-80
2023/09/29 20:09:31;;;;;;;18.13;6.22;;;19.70;99.90;;;;;;5169661;28;20132;-80
2023/09/29 20:12:04;;;;;;;7.43;5.60;;;19.60;99.90;;;;;;5170366;28;20146;-80
2023/09/29 20:14:38;;;;;;;14.93;6.10;;;19.70;99.90;;;;;;5170703;28;20029;-80
2023/09/29 20:17:09;;;;;;;11.18;5.95;;;19.80;99.90;;;;;;5188064;28;20031;-82
2023/09/29 20:19:45;;;;;;;11.00;6.03;;;19.80;99.90;;;;;;5189965;28;21154;-80
2023/09/29 20:22:20;;;;;;;11.10;5.38;;;19.70;99.90;;;;;;5173838;28;20034;-81
2023/09/29 20:24:51;;;;;;;8.73;4.55;;;19.60;99.90;;;;;;5167762;28;20032;-79
2023/09/29 20:27:22;;;;;;;22.48;4.72;;;19.70;99.90;;;;;;5170977;28;20029;-80
2023/09/29 20:29:53;;;;;;;12.18;4.40;;;19.70;99.90;;;;;;5174465;28;20026;-80
2023/09/29 20:32:24;;;;;;;15.77;5.30;;;19.40;99.90;;;;;;5175749;28;20076;-80
2023/09/29 20:34:55;;;;;;;14.77;5.97;;;19.40;99.90;;;;;;5175692;28;20064;-79
2023/09/29 20:37:26;;;;;;;13.55;5.70;;;19.30;99.90;;;;;;5168351;28;20054;-79
2023/09/29 20:39:58;;;;;;;11.32;5.47;;;19.50;99.90;;;;;;5175945;28;20034;-82
2023/09/29 20:42:29;;;;;;;13.15;5.28;;;19.30;99.90;;;;;;5174141;28;20057;-82
2023/09/29 20:45:00;;;;;;;9.88;4.63;;;19.50;99.90;;;;;;5185818;28;20035;-83
2023/09/29 20:47:31;;;;;;;8.27;4.70;;;19.70;99.90;;;;;;5175430;28;20032;-80
2023/09/29 20:50:03;;;;;;;8.30;4.43;;;19.60;99.90;;;;;;5175546;28;20027;-81
2023/09/29 20:52:35;;;;;;;13.88;4.60;;;19.30;99.90;;;;;;5170082;28;20036;-79
2023/09/29 20:55:06;;;;;;;9.20;5.75;;;19.30;99.90;;;;;;5170803;28;20065;-78
2023/09/29 20:57:38;;;;;;;11.05;5.22;;;19.30;99.90;;;;;;5180423;28;20034;-81
2023/09/29 21:00:12;;;;;;;12.25;4.90;;;19.30;99.90;;;;;;5173931;28;20018;-79
2023/09/29 21:02:44;;;;;;;10.23;5.07;;;19.30;99.90;;;;;;5193353;28;20034;-79
2023/09/29 21:05:15;;;;;;;10.93;4.47;;;19.30;99.90;;;;;;5191891;28;20022;-80
2023/09/29 21:07:46;;;;;;;10.07;5.25;;;19.30;99.90;;;;;;5182298;28;20445;-79
2023/09/29 21:10:17;;;;;;;15.32;5.47;;;19.40;99.90;;;;;;5175828;28;20070;-79
2023/09/29 21:12:48;;;;;;;10.65;4.72;;;19.10;99.90;;;;;;5172283;28;20471;-79
2023/09/29 21:15:20;;;;;;;7.93;4.88;;;19.30;99.90;;;;;;5176448;28;20026;-79
2023/09/29 21:17:51;;;;;;;10.35;4.40;;;19.30;99.90;;;;;;5181144;28;20026;-79
2023/09/29 21:20:21;;;;;;;15.73;4.30;;;19.40;99.90;;;;;;5192459;28;20088;-80
2023/09/29 21:22:52;;;;;;;8.70;3.72;;;19.30;99.90;;;;;;5173494;28;20105;-80
2023/09/29 21:25:23;;;;;;;11.30;4.57;;;19.20;99.90;;;;;;5182181;28;20056;-79
2023/09/29 21:27:54;;;;;;;7.03;4.95;;;19.10;99.90;;;;;;5179140;28;20453;-81
2023/09/29 21:30:26;;;;;;;14.50;4.72;;;19.20;99.90;;;;;;5182777;28;20062;-79
2023/09/29 21:32:57;;;;;;;10.70;5.20;;;19.10;99.90;;;;;;5196069;28;20033;-79
2023/09/29 21:35:28;;;;;;;11.75;4.40;;;19.20;99.90;;;;;;5196592;28;20026;-80
2023/09/29 21:37:59;;;;;;;10.30;4.22;;;19.20;99.90;;;;;;5182743;28;20116;-80
2023/09/29 21:40:30;;;;;;;10.77;5.20;;;19.10;99.90;;;;;;5198439;28;20030;-82
2023/09/29 21:43:01;;;;;;;12.38;5.47;;;19.10;99.90;;;;;;5175026;28;20424;-79
2023/09/29 21:45:32;;;;;;;15.13;5.63;;;19.10;99.90;;;;;;5180311;28;20052;-82
2023/09/29 21:48:03;;;;;;;8.73;5.57;;;19.20;99.90;;;;;;5183106;28;20044;-79
2023/09/29 21:50:34;;;;;;;5.80;4.95;;;19.00;99.90;;;;;;5173343;28;20046;-79
2023/09/29 21:53:05;;;;;;;9.07;4.97;;;19.20;99.90;;;;;;5181861;28;20030;-79
2023/09/29 21:55:36;;;;;;;7.85;4.68;;;18.90;99.90;;;;;;5172577;28;20030;-80
2023/09/29 21:58:07;;;;;;;9.15;5.10;;;18.90;99.90;;;;;;5173493;28;20026;-79
2023/09/29 22:00:41;;;;;;;12.57;4.93;;;19.10;99.90;;;;;;5182478;28;20076;-80
2023/09/29 22:03:13;;;;;;;10.40;5.53;;;19.30;99.90;;;;;;5187312;28;20030;-79
2023/09/29 22:05:45;;;;;;;12.73;5.43;;;19.10;99.90;;;;;;5175078;28;20046;-81
2023/09/29 22:08:16;;;;;;;12.13;5.82;;;19.10;99.90;;;;;;5180881;28;20485;-79
2023/09/29 22:10:48;;;;;;;14.63;5.65;;;19.20;99.90;;;;;;5194679;28;20088;-79
2023/09/29 22:13:20;;;;;;;19.58;6.20;;;19.10;99.90;;;;;;5171917;28;20055;-80
2023/09/29 22:15:50;;;;;;;12.70;6.22;;;19.20;99.90;;;;;;5173284;28;20030;-80
2023/09/29 22:18:21;;;;;;;18.27;6.10;;;19.20;99.90;;;;;;5175996;28;20084;-82
2023/09/29 22:20:55;;;;;;;9.43;6.00;;;19.10;99.90;;;;;;5176824;28;20030;-80
2023/09/29 22:23:27;;;;;;;14.27;6.38;;;19.20;99.90;;;;;;5174183;28;20030;-79
2023/09/29 22:25:59;;;;;;;12.93;6.50;;;19.30;99.90;;;;;;5175959;28;20088;-80
2023/09/29 22:28:31;;;;;;;10.13;5.75;;;19.30;99.90;;;;;;5176645;28;20026;-80
2023/09/29 22:31:02;;;;;;;8.63;5.68;;;19.50;99.90;;;;;;5192974;28;20211;-78
2023/09/29 22:33:33;;;;;;;9.80;6.38;;;19.40;99.90;;;;;;5173868;28;20030;-79
2023/09/29 22:36:04;;;;;;;15.18;5.80;;;19.10;99.90;;;;;;5180476;28;20036;-79
2023/09/29 22:38:36;;;;;;;9.25;5.80;;;19.10;99.90;;;;;;5170744;28;20058;-79
2023/09/29 22:41:06;;;;;;;12.38;5.75;;;19.20;99.90;;;;;;5195595;28;20428;-79
2023/09/29 22:43:37;;;;;;;11.27;6.03;;;19.20;99.90;;;;;;5176974;28;20065;-80
2023/09/29 22:46:09;;;;;;;8.45;5.85;;;19.40;99.90;;;;;;5194353;28;20026;-79
2023/09/29 22:48:39;;;;;;;7.18;5.85;;;19.20;99.90;;;;;;5175088;28;20041;-79
2023/09/29 22:51:10;;;;;;;9.93;5.43;;;19.40;99.90;;;;;;5176803;28;20034;-80
2023/09/29 22:53:41;;;;;;;10.32;5.32;;;19.40;99.90;;;;;;5178945;28;20022;-79
2023/09/29 22:56:13;;;;;;;13.20;5.65;;;19.40;99.90;;;;;;5192852;28;20377;-79
2023/09/29 22:58:44;;;;;;;14.98;5.40;;;19.40;99.90;;;;;;5171946;28;20030;-80
2023/09/29 23:01:15;;;;;;;9.98;5.35;;;19.40;99.90;;;;;;5180385;28;20022;-80
2023/09/29 23:03:46;;;;;;;12.18;6.03;;;19.50;99.90;;;;;;5190305;28;20019;-80
2023/09/29 23:06:17;;;;;;;15.55;5.63;;;19.50;99.90;;;;;;5198286;28;20030;-79
2023/09/29 23:08:47;;;;;;;9.52;5.47;;;19.50;99.90;;;;;;5199169;28;20038;-81
2023/09/29 23:11:18;;;;;;;14.70;5.55;;;19.40;99.90;;;;;;5173750;28;20117;-79
2023/09/29 23:13:50;;;;;;;10.15;5.43;;;19.30;99.90;;;;;;5187599;28;20066;-79
2023/09/29 23:16:21;;;;;;;16.83;6.15;;;19.30;99.90;;;;;;5177892;28;20026;-79
2023/09/29 23:18:53;;;;;;;10.40;5.82;;;19.20;99.90;;;;;;5190581;28;20486;-79
2023/09/29 23:21:24;;;;;;;13.25;6.05;;;19.00;99.90;;;;;;5177739;28;20026;-79
2023/09/29 23:23:55;;;;;;;11.90;5.28;;;19.00;99.90;;;;;;5174897;28;20488;-80
2023/09/29 23:26:28;;;;;;;13.07;6.35;;;19.10;99.90;;;;;;5174328;28;20022;-79
2023/09/29 23:28:58;;;;;;;16.73;6.50;;;19.20;99.90;;;;;;5185647;28;20771;-79
2023/09/29 23:31:29;;;;;;;11.52;6.43;;;19.20;99.90;;;;;;5179012;28;20040;-80
2023/09/29 23:34:00;;;;;;;13.60;6.82;;;19.40;99.90;;;;;;5167707;28;20126;-80
2023/09/29 23:36:31;;;;;;;12.13;6.20;;;19.20;99.90;;;;;;5194002;28;20030;-79
2023/09/29 23:39:02;;;;;;;12.18;6.57;;;19.10;99.90;;;;;;5176774;28;20045;-79
2023/09/29 23:41:33;;;;;;;10.95;6.00;;;19.20;99.90;;;;;;5171331;28;20057;-80
2023/09/29 23:44:04;;;;;;;11.45;6.20;;;19.20;99.90;;;;;;5172219;28;20096;-80
2023/09/29 23:46:37;;;;;;;8.18;6.20;;;19.40;99.90;;;;;;5187736;28;20026;-79
2023/09/29 23:49:07;;;;;;;11.20;6.60;;;19.40;99.90;;;;;;5178208;28;20057;-81
2023/09/29 23:51:38;;;;;;;9.73;6.05;;;19.60;99.90;;;;;;5189949;28;20073;-79
2023/09/29 23:54:09;;;;;;;8.90;5.75;;;19.40;99.90;;;;;;5174099;28;20018;-80
2023/09/29 23:56:40;;;;;;;8.98;5.75;;;19.50;99.90;;;;;;5175482;28;20083;-79
2023/09/29 23:59:11;;;;;;;13.05;6.03;;;19.50;99.90;;;;;;5176338;28;20026;-80
